createdAt,value
2018-12-09T00:01:46.033Z,9.10
2018-12-09T00:04:19.542Z,9.08
2018-12-09T00:06:51.902Z,9.13
2018-12-09T00:09:22.526Z,9.17
2018-12-09T00:11:53.570Z,9.13
2018-12-09T00:14:24.201Z,9.15
2018-12-09T00:16:54.786Z,9.14
2018-12-09T00:19:25.698Z,9.15
2018-12-09T00:21:56.397Z,9.20
2018-12-09T00:24:27.266Z,9.23
2018-12-09T00:26:57.875Z,9.27
2018-12-09T00:29:29.130Z,9.24
2018-12-09T00:31:59.689Z,9.32
2018-12-09T00:34:30.399Z,9.38
2018-12-09T00:37:01.029Z,9.47
2018-12-09T00:39:31.653Z,9.45
2018-12-09T00:42:02.261Z,9.47
2018-12-09T00:44:32.902Z,9.54
2018-12-09T00:47:03.467Z,9.57
2018-12-09T00:49:34.350Z,9.64
2018-12-09T00:52:05.221Z,9.72
2018-12-09T00:54:36.051Z,9.81
2018-12-09T00:57:06.655Z,9.84
2018-12-09T00:59:37.914Z,9.89
2018-12-09T01:02:10.856Z,9.93
2018-12-09T01:04:41.542Z,9.96
2018-12-09T01:07:12.569Z,10.04
2018-12-09T01:09:43.594Z,10.11
2018-12-09T01:12:14.218Z,10.17
2018-12-09T01:14:44.851Z,10.25
2018-12-09T01:17:15.465Z,10.34
2018-12-09T01:19:46.218Z,10.40
2018-12-09T01:22:17.035Z,10.46
2018-12-09T01:24:47.630Z,10.50
2018-12-09T01:27:18.266Z,10.50
2018-12-09T01:29:49.580Z,10.55
2018-12-09T01:32:21.590Z,10.56
2018-12-09T01:34:52.258Z,10.58
2018-12-09T01:37:23.218Z,10.64
2018-12-09T01:39:54.274Z,10.62
2018-12-09T01:42:25.178Z,10.66
2018-12-09T01:44:55.850Z,10.66
2018-12-09T01:47:26.668Z,10.66
2018-12-09T01:49:57.258Z,10.71
2018-12-09T01:52:28.128Z,10.73
2018-12-09T01:54:59.479Z,10.80
2018-12-09T01:57:30.116Z,10.79
2018-12-09T02:00:00.917Z,10.73
2018-12-09T02:02:31.570Z,10.72
2018-12-09T02:05:02.190Z,10.72
2018-12-09T02:07:33.145Z,10.77
2018-12-09T02:10:03.728Z,10.83
2018-12-09T02:12:34.414Z,10.81
2018-12-09T02:15:06.242Z,10.86
2018-12-09T02:17:36.882Z,10.92
2018-12-09T02:20:08.450Z,10.89
2018-12-09T02:22:39.769Z,10.85
2018-12-09T02:25:11.457Z,10.89
2018-12-09T02:27:42.675Z,10.81
2018-12-09T02:30:14.252Z,10.84
2018-12-09T02:32:45.071Z,10.85
2018-12-09T02:35:15.933Z,10.85
2018-12-09T02:37:47.018Z,10.89
2018-12-09T02:40:17.994Z,10.85
2018-12-09T02:42:48.809Z,10.63
2018-12-09T02:45:19.413Z,10.49
2018-12-09T02:47:50.078Z,10.31
2018-12-09T02:50:21.090Z,10.20
2018-12-09T02:52:52.656Z,10.06
2018-12-09T02:55:23.478Z,9.95
2018-12-09T02:57:54.346Z,9.94
2018-12-09T03:00:25.514Z,9.88
2018-12-09T03:02:56.421Z,9.89
2018-12-09T03:05:27.478Z,9.95
2018-12-09T03:07:58.102Z,9.90
2018-12-09T03:10:28.737Z,9.86
2018-12-09T03:12:59.352Z,9.81
2018-12-09T03:15:29.917Z,9.76
2018-12-09T03:18:00.878Z,9.64
2018-12-09T03:20:31.444Z,9.57
2018-12-09T03:23:02.128Z,9.51
2018-12-09T03:25:33.007Z,9.43
2018-12-09T03:28:03.815Z,9.38
2018-12-09T03:30:34.465Z,9.41
2018-12-09T03:33:05.745Z,9.37
2018-12-09T03:35:36.553Z,9.38
2018-12-09T03:38:07.243Z,9.33
2018-12-09T03:40:38.446Z,9.33
2018-12-09T03:43:09.024Z,9.34
2018-12-09T03:45:39.857Z,9.35
2018-12-09T03:48:10.766Z,9.34
2018-12-09T03:50:41.375Z,9.31
2018-12-09T03:53:12.229Z,9.37
2018-12-09T03:55:43.034Z,9.39
2018-12-09T03:58:13.682Z,9.37
2018-12-09T04:00:44.517Z,9.40
2018-12-09T04:03:15.094Z,9.45
2018-12-09T04:05:46.000Z,9.50
2018-12-09T04:08:17.279Z,9.47
2018-12-09T04:10:47.870Z,9.58
2018-12-09T04:13:18.485Z,9.56
2018-12-09T04:15:50.163Z,9.57
2018-12-09T04:18:22.719Z,9.58
2018-12-09T04:20:53.664Z,9.55
2018-12-09T04:23:24.476Z,9.57
2018-12-09T04:25:55.292Z,9.58
2018-12-09T04:28:25.952Z,9.57
2018-12-09T04:30:56.542Z,9.57
2018-12-09T04:33:27.476Z,9.58
2018-12-09T04:35:58.462Z,9.60
2018-12-09T04:38:29.289Z,9.55
2018-12-09T04:41:06.915Z,9.58
2018-12-09T04:43:37.722Z,9.63
2018-12-09T04:46:09.382Z,9.72
2018-12-09T04:48:40.217Z,9.70
2018-12-09T04:51:10.877Z,9.71
2018-12-09T04:53:41.784Z,9.72
2018-12-09T04:56:12.813Z,9.74
2018-12-09T04:58:59.179Z,9.76
2018-12-09T05:01:36.293Z,9.77
2018-12-09T05:04:07.157Z,9.74
2018-12-09T05:06:38.077Z,9.72
2018-12-09T05:09:09.425Z,9.76
2018-12-09T05:11:40.269Z,9.65
2018-12-09T05:14:10.909Z,9.65
2018-12-09T05:16:41.941Z,9.66
2018-12-09T05:19:12.511Z,9.64
2018-12-09T05:21:43.602Z,9.59
2018-12-09T05:24:14.325Z,9.59
2018-12-09T05:26:44.962Z,9.53
2018-12-09T05:29:15.609Z,9.56
2018-12-09T05:31:46.220Z,9.48
2018-12-09T05:34:17.273Z,9.44
2018-12-09T05:36:48.022Z,9.40
2018-12-09T05:39:18.841Z,9.42
2018-12-09T05:41:49.463Z,9.38
2018-12-09T05:44:20.679Z,9.38
2018-12-09T05:46:51.286Z,9.38
2018-12-09T05:49:22.780Z,9.39
2018-12-09T05:51:53.522Z,9.45
2018-12-09T05:54:24.721Z,9.48
2018-12-09T05:56:55.297Z,9.48
2018-12-09T05:59:25.854Z,9.52
2018-12-09T06:02:12.190Z,9.47
2018-12-09T06:04:42.753Z,9.45
2018-12-09T06:07:13.322Z,9.52
2018-12-09T06:09:43.921Z,9.50
2018-12-09T06:12:14.767Z,9.50
2018-12-09T06:14:45.374Z,9.41
2018-12-09T06:17:15.938Z,9.40
2018-12-09T06:19:46.733Z,9.29
2018-12-09T06:22:17.626Z,9.17
2018-12-09T06:24:48.531Z,9.11
2018-12-09T06:27:19.106Z,9.07
2018-12-09T06:29:49.669Z,9.05
2018-12-09T06:32:20.324Z,9.06
2018-12-09T06:34:50.933Z,9.12
2018-12-09T06:37:22.210Z,8.99
2018-12-09T06:39:53.135Z,8.76
2018-12-09T06:42:24.005Z,8.48
2018-12-09T06:44:56.868Z,8.24
2018-12-09T06:47:27.561Z,8.02
2018-12-09T06:49:59.149Z,7.74
2018-12-09T06:52:29.888Z,7.77
2018-12-09T06:55:00.970Z,7.71
2018-12-09T06:57:31.830Z,7.61
2018-12-09T07:00:06.180Z,7.66
2018-12-09T07:02:37.090Z,7.53
2018-12-09T07:05:10.031Z,7.53
2018-12-09T07:07:40.846Z,7.52
2018-12-09T07:10:12.893Z,7.58
2018-12-09T07:12:43.696Z,7.63
2018-12-09T07:15:15.430Z,7.65
2018-12-09T07:17:46.329Z,7.77
2018-12-09T07:20:17.471Z,7.84
2018-12-09T07:22:48.314Z,7.91
2018-12-09T07:25:19.418Z,8.00
2018-12-09T07:27:50.198Z,8.03
2018-12-09T07:30:20.895Z,8.13
2018-12-09T07:32:51.689Z,8.22
2018-12-09T07:35:22.257Z,8.35
2018-12-09T07:37:53.079Z,8.43
2018-12-09T07:40:23.889Z,8.43
2018-12-09T07:42:54.473Z,8.51
2018-12-09T07:45:25.270Z,8.51
2018-12-09T07:47:55.866Z,8.55
2018-12-09T07:50:26.797Z,8.54
2018-12-09T07:52:57.413Z,8.56
2018-12-09T07:55:28.354Z,8.56
2018-12-09T07:57:58.984Z,8.63
2018-12-09T08:00:29.657Z,8.61
2018-12-09T08:03:00.267Z,8.63
2018-12-09T08:05:31.193Z,8.73
2018-12-09T08:08:01.790Z,8.73
2018-12-09T08:10:32.438Z,8.71
2018-12-09T08:13:03.054Z,8.72
2018-12-09T08:15:33.807Z,8.69
2018-12-09T08:18:04.442Z,8.73
2018-12-09T08:20:35.630Z,8.80
2018-12-09T08:23:06.202Z,8.82
2018-12-09T08:25:36.933Z,8.88
2018-12-09T08:28:07.601Z,8.91
2018-12-09T08:30:38.207Z,8.98
2018-12-09T08:33:08.819Z,9.04
2018-12-09T08:35:39.463Z,9.06
2018-12-09T08:38:10.302Z,9.09
2018-12-09T08:40:40.946Z,9.09
2018-12-09T08:43:11.508Z,9.13
2018-12-09T08:45:42.093Z,9.17
2018-12-09T08:48:12.649Z,9.10
2018-12-09T08:50:43.434Z,9.14
2018-12-09T08:53:14.149Z,9.14
2018-12-09T08:55:44.737Z,9.16
2018-12-09T08:58:15.538Z,9.14
2018-12-09T09:00:46.157Z,9.15
2018-12-09T09:03:16.801Z,9.11
2018-12-09T09:05:47.418Z,9.13
2018-12-09T09:08:18.066Z,9.20
2018-12-09T09:10:48.638Z,9.20
2018-12-09T09:13:19.749Z,9.17
2018-12-09T09:15:50.417Z,9.21
2018-12-09T09:18:21.168Z,9.11
2018-12-09T09:20:51.746Z,9.03
2018-12-09T09:23:22.643Z,8.91
2018-12-09T09:25:53.378Z,8.81
2018-12-09T09:28:24.359Z,8.83
2018-12-09T09:30:55.802Z,8.78
2018-12-09T09:33:26.422Z,8.74
2018-12-09T09:35:57.034Z,8.70
2018-12-09T09:38:27.719Z,8.67
2018-12-09T09:40:58.256Z,8.71
2018-12-09T09:43:28.863Z,8.73
2018-12-09T09:45:59.486Z,8.70
2018-12-09T09:48:30.131Z,8.69
2018-12-09T09:51:00.727Z,8.78
2018-12-09T09:53:31.401Z,8.80
2018-12-09T09:56:02.142Z,8.80
2018-12-09T09:58:32.776Z,8.83
2018-12-09T10:01:03.912Z,8.80
2018-12-09T10:03:34.622Z,8.76
2018-12-09T10:06:05.662Z,8.80
2018-12-09T10:08:36.254Z,8.80
2018-12-09T10:11:06.897Z,8.77
2018-12-09T10:13:38.179Z,8.79
2018-12-09T10:16:09.585Z,8.79
2018-12-09T10:18:40.255Z,8.74
2018-12-09T10:21:10.889Z,8.73
2018-12-09T10:23:41.593Z,8.80
2018-12-09T10:26:12.221Z,8.85
2018-12-09T10:28:43.177Z,8.87
2018-12-09T10:31:14.822Z,8.81
2018-12-09T10:33:45.538Z,8.83
2018-12-09T10:36:16.281Z,8.88
2018-12-09T10:38:47.145Z,8.83
2018-12-09T10:41:17.737Z,8.84
2018-12-09T10:43:48.416Z,8.90
2018-12-09T10:46:19.131Z,8.90
2018-12-09T10:48:49.959Z,8.97
2018-12-09T10:51:20.536Z,8.93
2018-12-09T10:53:51.132Z,8.94
2018-12-09T10:56:22.005Z,9.01
2018-12-09T10:58:52.668Z,9.00
2018-12-09T11:04:22.416Z,8.92
2018-12-09T11:06:53.151Z,8.96
2018-12-09T11:09:23.746Z,8.92
2018-12-09T11:11:54.343Z,8.97
2018-12-09T11:14:25.014Z,8.99
2018-12-09T11:16:55.618Z,9.11
2018-12-09T11:19:26.446Z,8.95
2018-12-09T11:21:57.053Z,8.91
2018-12-09T11:24:28.775Z,8.82
2018-12-09T11:26:59.446Z,8.84
2018-12-09T11:29:30.141Z,8.89
2018-12-09T11:32:00.742Z,8.92
2018-12-09T11:34:31.493Z,8.94
2018-12-09T11:37:03.158Z,8.92
2018-12-09T11:39:33.841Z,8.90
2018-12-09T11:42:04.417Z,8.81
2018-12-09T11:44:35.709Z,8.72
2018-12-09T11:47:06.531Z,8.66
2018-12-09T11:49:37.123Z,8.51
2018-12-09T11:52:08.269Z,8.56
2018-12-09T11:54:38.894Z,8.60
2018-12-09T11:57:09.509Z,8.55
2018-12-09T11:59:40.183Z,8.52
2018-12-09T12:02:10.834Z,8.50
2018-12-09T12:04:41.685Z,8.48
2018-12-09T12:07:12.441Z,8.48
2018-12-09T12:09:43.818Z,8.53
2018-12-09T12:12:14.586Z,8.54
2018-12-09T12:14:45.181Z,8.61
2018-12-09T12:17:16.182Z,8.57
2018-12-09T12:19:46.823Z,8.61
2018-12-09T12:22:17.400Z,8.60
2018-12-09T12:24:48.108Z,8.67
2018-12-09T12:27:18.749Z,8.73
2018-12-09T12:29:50.004Z,8.69
2018-12-09T12:32:20.599Z,8.74
2018-12-09T12:34:51.337Z,8.84
2018-12-09T12:37:21.995Z,8.86
2018-12-09T12:39:52.559Z,8.91
2018-12-09T12:42:23.186Z,9.00
2018-12-09T12:44:53.902Z,8.97
2018-12-09T12:47:24.517Z,9.09
2018-12-09T12:49:55.155Z,9.13
2018-12-09T12:52:26.328Z,9.23
2018-12-09T12:54:57.031Z,9.19
2018-12-09T12:57:27.687Z,9.16
2018-12-09T12:59:58.440Z,9.18
2018-12-09T13:02:29.006Z,9.16
2018-12-09T13:04:59.689Z,9.16
2018-12-09T13:07:30.472Z,9.19
2018-12-09T13:10:01.127Z,9.23
2018-12-09T13:12:32.879Z,9.25
2018-12-09T13:15:04.446Z,9.26
2018-12-09T13:17:35.126Z,9.26
2018-12-09T13:20:08.155Z,9.25
2018-12-09T13:22:38.773Z,9.23
2018-12-09T13:25:09.914Z,9.15
2018-12-09T13:27:41.167Z,9.12
2018-12-09T13:30:12.792Z,9.06
2018-12-09T13:32:44.183Z,8.99
2018-12-09T13:35:15.219Z,9.01
2018-12-09T13:37:46.683Z,9.01
2018-12-09T13:40:18.411Z,9.06
2018-12-09T13:42:49.559Z,9.02
2018-12-09T13:45:20.130Z,8.98
2018-12-09T13:47:51.380Z,9.00
2018-12-09T13:50:22.043Z,9.00
2018-12-09T13:52:52.718Z,9.02
2018-12-09T13:55:23.379Z,9.02
2018-12-09T13:57:54.182Z,9.02
2018-12-09T14:00:25.102Z,8.99
2018-12-09T14:02:55.670Z,8.91
2018-12-09T14:08:14.835Z,8.90
2018-12-09T14:10:45.635Z,8.87
2018-12-09T14:13:16.478Z,8.86
2018-12-09T14:15:47.121Z,8.78
2018-12-09T14:18:17.726Z,8.61
2018-12-09T14:20:48.350Z,8.61
2018-12-09T14:23:19.361Z,8.58
2018-12-09T14:25:50.009Z,8.40
2018-12-09T14:28:20.673Z,8.38
2018-12-09T14:30:51.302Z,8.49
2018-12-09T14:33:21.943Z,8.34
2018-12-09T14:35:52.581Z,8.32
2018-12-09T14:38:23.413Z,8.38
2018-12-09T14:40:54.549Z,8.31
2018-12-09T14:43:25.165Z,8.18
2018-12-09T14:45:55.755Z,8.21
2018-12-09T14:48:26.667Z,8.11
2018-12-09T14:50:57.481Z,8.27
2018-12-09T14:53:28.078Z,8.31
2018-12-09T14:55:58.910Z,8.33
2018-12-09T14:58:29.539Z,8.30
2018-12-09T15:01:00.222Z,8.38
2018-12-09T15:03:30.843Z,8.39
2018-12-09T15:06:01.459Z,8.46
2018-12-09T15:08:32.098Z,8.55
2018-12-09T15:11:03.213Z,8.51
2018-12-09T15:13:34.280Z,8.55
2018-12-09T15:16:04.942Z,8.60
2018-12-09T15:18:35.882Z,8.62
2018-12-09T15:21:06.579Z,8.68
2018-12-09T15:23:37.138Z,8.66
2018-12-09T15:26:08.051Z,8.60
2018-12-09T15:28:39.217Z,8.62
2018-12-09T15:31:09.815Z,8.63
2018-12-09T15:33:40.560Z,8.58
2018-12-09T15:36:11.151Z,8.61
2018-12-09T15:38:41.969Z,8.62
2018-12-09T15:41:12.565Z,8.59
2018-12-09T15:43:43.218Z,8.61
2018-12-09T15:46:14.198Z,8.57
2018-12-09T15:48:51.600Z,8.58
2018-12-09T15:51:23.354Z,8.65
2018-12-09T15:53:55.789Z,8.59
2018-12-09T15:56:26.460Z,8.62
2018-12-09T15:58:57.221Z,8.62
2018-12-09T16:01:27.834Z,8.57
2018-12-09T16:03:59.015Z,8.62
2018-12-09T16:06:29.702Z,8.62
2018-12-09T16:09:01.494Z,8.62
2018-12-09T16:11:33.746Z,8.67
2018-12-09T16:14:04.998Z,8.68
2018-12-09T16:16:35.806Z,8.70
2018-12-09T16:19:06.452Z,8.68
2018-12-09T16:21:37.069Z,8.73
2018-12-09T16:24:08.153Z,8.78
2018-12-09T16:26:38.728Z,8.78
2018-12-09T16:29:09.513Z,8.79
2018-12-09T16:31:40.173Z,8.81
2018-12-09T16:34:10.788Z,8.77
2018-12-09T16:36:41.365Z,8.78
2018-12-09T16:39:12.465Z,8.78
2018-12-09T16:41:43.214Z,8.80
2018-12-09T16:44:13.882Z,8.85
2018-12-09T16:46:44.594Z,8.86
2018-12-09T16:49:15.242Z,8.85
2018-12-09T16:51:46.063Z,8.85
2018-12-09T16:54:17.506Z,8.86
2018-12-09T16:56:48.241Z,8.90
2018-12-09T16:59:19.104Z,8.88
2018-12-09T17:01:49.725Z,8.82
2018-12-09T17:04:20.391Z,8.84
2018-12-09T17:06:50.989Z,8.87
2018-12-09T17:09:21.803Z,8.88
2018-12-09T17:11:52.434Z,8.89
2018-12-09T17:14:23.022Z,8.90
2018-12-09T17:16:53.733Z,8.93
2018-12-09T17:19:25.594Z,8.95
2018-12-09T17:21:56.441Z,8.93
2018-12-09T17:24:27.058Z,8.99
2018-12-09T17:26:57.715Z,8.95
2018-12-09T17:29:28.462Z,8.89
2018-12-09T17:31:59.124Z,8.88
2018-12-09T17:34:29.729Z,8.84
2018-12-09T17:37:00.329Z,8.90
2018-12-09T17:39:30.942Z,8.89
2018-12-09T17:42:01.548Z,8.87
2018-12-09T17:44:32.407Z,8.87
2018-12-09T17:47:03.348Z,8.88
2018-12-09T17:49:33.969Z,8.88
2018-12-09T17:52:04.686Z,8.92
2018-12-09T17:54:38.249Z,8.89
2018-12-09T17:57:09.306Z,8.86
2018-12-09T17:59:39.925Z,8.84
2018-12-09T18:02:10.551Z,8.84
2018-12-09T18:04:41.249Z,8.88
2018-12-09T18:07:11.825Z,8.87
2018-12-09T18:09:42.494Z,8.85
2018-12-09T18:12:13.107Z,8.86
2018-12-09T18:14:43.685Z,8.89
2018-12-09T18:17:14.381Z,8.87
2018-12-09T18:19:44.990Z,8.79
2018-12-09T18:22:15.573Z,8.84
2018-12-09T18:24:46.189Z,8.85
2018-12-09T18:27:16.797Z,8.80
2018-12-09T18:29:47.439Z,8.81
2018-12-09T18:32:18.486Z,8.76
2018-12-09T18:34:49.614Z,8.81
2018-12-09T18:37:20.674Z,8.88
2018-12-09T18:39:51.833Z,8.85
2018-12-09T18:42:22.390Z,8.86
2018-12-09T18:44:53.026Z,8.86
2018-12-09T18:47:23.598Z,8.82
2018-12-09T18:49:54.435Z,8.90
2018-12-09T18:52:25.026Z,8.92
2018-12-09T18:54:56.006Z,8.91
2018-12-09T18:57:26.590Z,8.83
2018-12-09T18:59:57.578Z,8.82
2018-12-09T19:02:28.198Z,8.84
2018-12-09T19:04:59.718Z,8.80
2018-12-09T19:07:30.758Z,8.79
2018-12-09T19:10:02.334Z,8.79
2018-12-09T19:12:34.258Z,8.84
2018-12-09T19:15:05.974Z,8.82
2018-12-09T19:17:36.561Z,8.83
2018-12-09T19:20:08.019Z,8.76
2018-12-09T19:22:39.202Z,8.71
2018-12-09T19:25:09.957Z,8.73
2018-12-09T19:27:40.642Z,8.72
2018-12-09T19:30:11.246Z,8.73
2018-12-09T19:32:41.873Z,8.77
2018-12-09T19:35:12.537Z,8.81
2018-12-09T19:37:43.200Z,8.88
2018-12-09T19:40:14.268Z,8.88
2018-12-09T19:42:45.057Z,8.92
2018-12-09T19:45:15.718Z,8.94
2018-12-09T19:47:46.300Z,9.00
2018-12-09T19:50:17.458Z,9.01
2018-12-09T19:52:48.148Z,9.04
2018-12-09T19:55:18.790Z,9.07
2018-12-09T19:57:49.863Z,9.06
2018-12-09T20:00:20.491Z,9.04
2018-12-09T20:02:51.087Z,9.03
2018-12-09T20:05:21.670Z,9.02
2018-12-09T20:07:52.384Z,9.07
2018-12-09T20:10:22.958Z,9.05
2018-12-09T20:12:53.649Z,9.08
2018-12-09T20:15:24.393Z,9.06
2018-12-09T20:17:55.036Z,9.08
2018-12-09T20:20:25.651Z,9.10
2018-12-09T20:22:56.284Z,9.09
2018-12-09T20:25:26.990Z,8.95
2018-12-09T20:27:57.602Z,8.90
2018-12-09T20:30:28.254Z,8.89
2018-12-09T20:32:58.880Z,8.87
2018-12-09T20:35:29.544Z,8.87
2018-12-09T20:38:00.140Z,8.89
2018-12-09T20:40:30.774Z,8.89
2018-12-09T20:43:01.430Z,8.90
2018-12-09T20:45:32.001Z,8.94
2018-12-09T20:48:02.901Z,8.98
2018-12-09T20:50:33.570Z,8.98
2018-12-09T20:53:05.642Z,8.95
2018-12-09T20:55:36.246Z,8.94
2018-12-09T20:58:07.102Z,8.95
2018-12-09T21:00:38.142Z,8.97
2018-12-09T21:03:08.991Z,8.93
2018-12-09T21:05:39.642Z,8.88
2018-12-09T21:08:10.291Z,8.88
2018-12-09T21:10:41.713Z,8.86
2018-12-09T21:13:19.034Z,8.85
2018-12-09T21:15:51.381Z,8.83
2018-12-09T21:18:22.335Z,8.82
2018-12-09T21:20:53.478Z,8.83
2018-12-09T21:23:24.416Z,8.85
2018-12-09T21:25:55.127Z,8.79
2018-12-09T21:28:25.981Z,8.81
2018-12-09T21:30:56.569Z,8.75
2018-12-09T21:33:27.254Z,8.73
2018-12-09T21:35:57.933Z,8.73
2018-12-09T21:38:28.630Z,8.73
2018-12-09T21:40:59.329Z,8.71
2018-12-09T21:43:30.175Z,8.72
2018-12-09T21:46:00.782Z,8.69
2018-12-09T21:48:31.553Z,8.72
2018-12-09T21:51:02.139Z,8.70
2018-12-09T21:53:32.818Z,8.71
2018-12-09T21:56:03.405Z,8.72
2018-12-09T21:58:34.117Z,8.75
2018-12-09T22:01:05.408Z,8.70
2018-12-09T22:03:36.146Z,8.68
2018-12-09T22:06:07.820Z,8.61
2018-12-09T22:08:38.571Z,8.63
2018-12-09T22:11:09.141Z,8.62
2018-12-09T22:13:40.713Z,8.63
2018-12-09T22:16:11.299Z,8.70
2018-12-09T22:18:42.829Z,8.64
2018-12-09T22:21:13.414Z,8.61
2018-12-09T22:23:44.062Z,8.58
2018-12-09T22:26:14.683Z,8.54
2018-12-09T22:28:45.322Z,8.51
2018-12-09T22:31:16.050Z,8.47
2018-12-09T22:33:46.942Z,8.49
2018-12-09T22:36:17.610Z,8.44
2018-12-09T22:38:48.512Z,8.41
2018-12-09T22:41:19.082Z,8.40
2018-12-09T22:43:50.635Z,8.41
2018-12-09T22:46:21.278Z,8.42
2018-12-09T22:48:52.639Z,8.41
2018-12-09T22:51:23.250Z,8.38
2018-12-09T22:53:54.388Z,8.37
2018-12-09T22:56:25.497Z,8.33
2018-12-09T22:58:56.242Z,8.38
2018-12-09T23:01:27.262Z,8.38
2018-12-09T23:03:58.270Z,8.35
2018-12-09T23:06:28.855Z,8.36
2018-12-09T23:08:59.494Z,8.42
2018-12-09T23:11:30.113Z,8.46
2018-12-09T23:14:00.759Z,8.37
2018-12-09T23:16:31.382Z,8.32
2018-12-09T23:19:01.994Z,8.25
2018-12-09T23:21:32.597Z,8.19
2018-12-09T23:24:03.190Z,8.22
2018-12-09T23:26:33.761Z,8.19
2018-12-09T23:29:05.270Z,8.15
2018-12-09T23:31:35.826Z,8.17
2018-12-09T23:34:06.417Z,8.17
2018-12-09T23:36:37.090Z,8.15
2018-12-09T23:39:08.335Z,8.12
2018-12-09T23:41:38.898Z,8.14
2018-12-09T23:44:10.145Z,8.14
2018-12-09T23:46:41.043Z,8.11
2018-12-09T23:49:11.650Z,8.08
2018-12-09T23:51:42.193Z,8.07
2018-12-09T23:54:13.010Z,8.04
2018-12-09T23:56:43.574Z,8.02
2018-12-09T23:59:14.129Z,8.05
